sensor_id;sensor_type;location;lat;lon;timestamp;P1;durP1;ratioP1;P2;durP2;ratioP2
45314;SDS011;31051;51.540;5.852;2023-05-27T00:12:24;12.6;;;4.3;;
45314;SDS011;31051;51.540;5.852;2023-05-27T00:25:23;14.2;;;4.4;;
45314;SDS011;31051;51.540;5.852;2023-05-27T00:38:23;13.1;;;4.5;;
45314;SDS011;31051;51.540;5.852;2023-05-27T00:51:22;12.3;;;4.4;;
45314;SDS011;31051;51.540;5.852;2023-05-27T01:04:21;12.5;;;4.6;;
45314;SDS011;31051;51.540;5.852;2023-05-27T01:17:20;12.5;;;4.5;;
45314;SDS011;31051;51.540;5.852;2023-05-27T01:30:20;11.5;;;4.4;;
45314;SDS011;31051;51.540;5.852;2023-05-27T01:43:19;13.7;;;5.5;;
45314;SDS011;31051;51.540;5.852;2023-05-27T01:56:18;13.6;;;5.7;;
45314;SDS011;31051;51.540;5.852;2023-05-27T02:09:18;12.7;;;4.6;;
45314;SDS011;31051;51.540;5.852;2023-05-27T02:22:17;14.1;;;5.0;;
45314;SDS011;31051;51.540;5.852;2023-05-27T02:35:16;11.7;;;4.8;;
45314;SDS011;31051;51.540;5.852;2023-05-27T02:48:15;13.2;;;5.1;;
45314;SDS011;31051;51.540;5.852;2023-05-27T03:01:15;11.6;;;4.9;;
45314;SDS011;31051;51.540;5.852;2023-05-27T03:14:14;14.0;;;5.6;;
45314;SDS011;31051;51.540;5.852;2023-05-27T03:27:13;12.2;;;5.5;;
45314;SDS011;31051;51.540;5.852;2023-05-27T03:40:12;12.7;;;5.1;;
45314;SDS011;31051;51.540;5.852;2023-05-27T03:53:12;17.0;;;6.0;;
45314;SDS011;31051;51.540;5.852;2023-05-27T04:06:11;14.8;;;5.9;;
45314;SDS011;31051;51.540;5.852;2023-05-27T04:19:10;16.0;;;6.1;;
45314;SDS011;31051;51.540;5.852;2023-05-27T04:32:09;14.8;;;5.8;;
45314;SDS011;31051;51.540;5.852;2023-05-27T04:45:08;16.9;;;6.1;;
45314;SDS011;31051;51.540;5.852;2023-05-27T04:58:08;19.1;;;6.2;;
45314;SDS011;31051;51.540;5.852;2023-05-27T05:11:07;26.0;;;6.5;;
45314;SDS011;31051;51.540;5.852;2023-05-27T05:24:06;17.0;;;6.2;;
45314;SDS011;31051;51.540;5.852;2023-05-27T05:37:05;15.8;;;6.4;;
45314;SDS011;31051;51.540;5.852;2023-05-27T05:50:05;16.6;;;6.2;;
45314;SDS011;31051;51.540;5.852;2023-05-27T06:03:04;18.2;;;6.2;;
45314;SDS011;31051;51.540;5.852;2023-05-27T06:16:03;14.1;;;5.7;;
45314;SDS011;31051;51.540;5.852;2023-05-27T06:29:02;18.2;;;6.0;;
45314;SDS011;31051;51.540;5.852;2023-05-27T06:42:02;15.0;;;5.8;;
45314;SDS011;31051;51.540;5.852;2023-05-27T06:55:01;13.6;;;5.3;;
45314;SDS011;31051;51.540;5.852;2023-05-27T07:08:00;15.8;;;5.6;;
45314;SDS011;31051;51.540;5.852;2023-05-27T07:21:00;16.7;;;5.7;;
45314;SDS011;31051;51.540;5.852;2023-05-27T07:33:59;13.6;;;5.4;;
45314;SDS011;31051;51.540;5.852;2023-05-27T07:46:59;15.4;;;5.7;;
45314;SDS011;31051;51.540;5.852;2023-05-27T07:59:58;13.5;;;5.3;;
45314;SDS011;31051;51.540;5.852;2023-05-27T08:12:57;15.3;;;5.8;;
45314;SDS011;31051;51.540;5.852;2023-05-27T08:25:56;14.5;;;5.6;;
45314;SDS011;31051;51.540;5.852;2023-05-27T08:38:45;12.8;;;5.4;;
45314;SDS011;31051;51.540;5.852;2023-05-27T08:51:44;20.5;;;6.0;;
45314;SDS011;31051;51.540;5.852;2023-05-27T09:04:32;13.6;;;5.5;;
45314;SDS011;31051;51.540;5.852;2023-05-27T09:17:21;13.2;;;5.1;;
45314;SDS011;31051;51.540;5.852;2023-05-27T09:30:21;12.9;;;4.9;;
45314;SDS011;31051;51.540;5.852;2023-05-27T09:43:19;11.4;;;4.7;;
45314;SDS011;31051;51.540;5.852;2023-05-27T09:56:08;13.1;;;5.1;;
45314;SDS011;31051;51.540;5.852;2023-05-27T10:08:57;22.2;;;6.1;;
45314;SDS011;31051;51.540;5.852;2023-05-27T10:21:57;14.1;;;5.1;;
45314;SDS011;31051;51.540;5.852;2023-05-27T10:34:55;14.6;;;5.0;;
45314;SDS011;31051;51.540;5.852;2023-05-27T10:47:44;20.3;;;5.1;;
45314;SDS011;31051;51.540;5.852;2023-05-27T11:00:43;12.7;;;4.5;;
45314;SDS011;31051;51.540;5.852;2023-05-27T11:13:40;10.2;;;4.2;;
45314;SDS011;31051;51.540;5.852;2023-05-27T11:26:28;13.4;;;4.5;;
45314;SDS011;31051;51.540;5.852;2023-05-27T11:39:15;17.1;;;4.8;;
45314;SDS011;31051;51.540;5.852;2023-05-27T11:52:03;14.3;;;4.7;;
45314;SDS011;31051;51.540;5.852;2023-05-27T12:04:50;10.6;;;4.0;;
45314;SDS011;31051;51.540;5.852;2023-05-27T12:17:37;19.6;;;4.7;;
45314;SDS011;31051;51.540;5.852;2023-05-27T12:30:25;17.8;;;4.3;;
45314;SDS011;31051;51.540;5.852;2023-05-27T12:43:12;10.4;;;4.3;;
45314;SDS011;31051;51.540;5.852;2023-05-27T12:56:00;12.1;;;4.3;;
45314;SDS011;31051;51.540;5.852;2023-05-27T13:08:48;11.3;;;4.2;;
45314;SDS011;31051;51.540;5.852;2023-05-27T13:21:46;17.6;;;4.8;;
45314;SDS011;31051;51.540;5.852;2023-05-27T13:34:33;12.8;;;4.3;;
45314;SDS011;31051;51.540;5.852;2023-05-27T13:47:20;11.1;;;3.8;;
45314;SDS011;31051;51.540;5.852;2023-05-27T14:00:08;16.3;;;4.5;;
45314;SDS011;31051;51.540;5.852;2023-05-27T14:12:55;14.2;;;4.7;;
45314;SDS011;31051;51.540;5.852;2023-05-27T14:25:43;9.0;;;4.1;;
45314;SDS011;31051;51.540;5.852;2023-05-27T14:38:30;8.5;;;4.0;;
45314;SDS011;31051;51.540;5.852;2023-05-27T14:51:18;11.1;;;4.2;;
45314;SDS011;31051;51.540;5.852;2023-05-27T15:04:05;11.6;;;4.3;;
45314;SDS011;31051;51.540;5.852;2023-05-27T15:16:52;8.3;;;3.8;;
45314;SDS011;31051;51.540;5.852;2023-05-27T15:29:40;10.7;;;4.3;;
45314;SDS011;31051;51.540;5.852;2023-05-27T15:42:27;11.6;;;4.2;;
45314;SDS011;31051;51.540;5.852;2023-05-27T15:55:15;31.1;;;6.7;;
45314;SDS011;31051;51.540;5.852;2023-05-27T16:08:02;14.9;;;4.5;;
45314;SDS011;31051;51.540;5.852;2023-05-27T16:20:49;12.1;;;4.4;;
45314;SDS011;31051;51.540;5.852;2023-05-27T16:33:37;14.9;;;4.4;;
45314;SDS011;31051;51.540;5.852;2023-05-27T16:46:24;10.8;;;4.2;;
45314;SDS011;31051;51.540;5.852;2023-05-27T16:59:12;12.1;;;4.2;;
45314;SDS011;31051;51.540;5.852;2023-05-27T17:11:59;9.2;;;3.8;;
45314;SDS011;31051;51.540;5.852;2023-05-27T17:24:46;13.3;;;4.6;;
45314;SDS011;31051;51.540;5.852;2023-05-27T17:37:34;10.3;;;4.3;;
45314;SDS011;31051;51.540;5.852;2023-05-27T17:50:21;9.2;;;4.2;;
45314;SDS011;31051;51.540;5.852;2023-05-27T18:03:09;15.9;;;4.5;;
45314;SDS011;31051;51.540;5.852;2023-05-27T18:15:57;15.1;;;4.5;;
45314;SDS011;31051;51.540;5.852;2023-05-27T18:28:56;12.1;;;4.6;;
45314;SDS011;31051;51.540;5.852;2023-05-27T18:41:55;12.2;;;4.4;;
45314;SDS011;31051;51.540;5.852;2023-05-27T18:54:54;10.5;;;4.4;;
45314;SDS011;31051;51.540;5.852;2023-05-27T19:07:42;8.7;;;4.3;;
45314;SDS011;31051;51.540;5.852;2023-05-27T19:20:30;7.3;;;4.3;;
45314;SDS011;31051;51.540;5.852;2023-05-27T19:33:20;7.5;;;4.4;;
45314;SDS011;31051;51.540;5.852;2023-05-27T19:46:18;8.7;;;4.7;;
45314;SDS011;31051;51.540;5.852;2023-05-27T19:59:08;11.1;;;5.0;;
45314;SDS011;31051;51.540;5.852;2023-05-27T20:12:07;8.9;;;4.5;;
45314;SDS011;31051;51.540;5.852;2023-05-27T20:25:06;8.6;;;5.0;;
45314;SDS011;31051;51.540;5.852;2023-05-27T20:38:06;8.9;;;5.0;;
45314;SDS011;31051;51.540;5.852;2023-05-27T20:51:05;8.3;;;4.9;;
45314;SDS011;31051;51.540;5.852;2023-05-27T21:04:04;8.9;;;5.1;;
45314;SDS011;31051;51.540;5.852;2023-05-27T21:17:04;8.7;;;5.4;;
45314;SDS011;31051;51.540;5.852;2023-05-27T21:30:03;8.3;;;5.1;;
45314;SDS011;31051;51.540;5.852;2023-05-27T21:43:02;9.2;;;5.6;;
45314;SDS011;31051;51.540;5.852;2023-05-27T21:56:02;9.4;;;5.6;;
45314;SDS011;31051;51.540;5.852;2023-05-27T22:09:01;9.4;;;6.2;;
45314;SDS011;31051;51.540;5.852;2023-05-27T22:22:00;11.1;;;7.0;;
45314;SDS011;31051;51.540;5.852;2023-05-27T22:35:00;11.9;;;7.6;;
45314;SDS011;31051;51.540;5.852;2023-05-27T22:47:59;13.6;;;10.3;;
45314;SDS011;31051;51.540;5.852;2023-05-27T23:00:58;12.3;;;9.1;;
45314;SDS011;31051;51.540;5.852;2023-05-27T23:13:58;11.5;;;7.9;;
45314;SDS011;31051;51.540;5.852;2023-05-27T23:26:57;11.0;;;7.7;;
45314;SDS011;31051;51.540;5.852;2023-05-27T23:39:57;10.2;;;7.1;;
45314;SDS011;31051;51.540;5.852;2023-05-27T23:52:56;10.4;;;7.2;;
